Terminal Aerodrome Forecast
Issued by NWS Shreveport, LA

Home | Current Version | Previous Version | Text Only | Print | Product List | Glossary On
Versions: 1 2 3 4 5 6 7 8 9 10 11 12 13
000
FTUS44 KSHV 031735
TAFGGG
TAF
KGGG 031735Z 0318/0418 23012KT P6SM VCSH BKN035 BKN150 OVC250
      TEMPO 0320/0324 VRB15G30KT 2SM TSRA BR BKN030CB
     FM040000 VRB06KT P6SM VCTS BKN040CB OVC100
      TEMPO 0400/0403 3SM -TSRA BR BKN025CB
     FM040600 19007KT P6SM SCT050 SCT100 BKN250
     FM041200 21007KT P6SM SCT010 BKN100 OVC150
      TEMPO 0413/0416 BKN010
     FM041600 22008KT P6SM SCT030 BKN100 OVC150=

USA.gov is the U.S. government's official web portal to all federal, state and local government web resources and services.